sensor_id;sensor_type;location;lat;lon;timestamp;temperature;humidity
40085;DHT22;25786;51.504;7.344;2022-09-17T00:01:25;11.60;87.60
40085;DHT22;25786;51.504;7.344;2022-09-17T00:03:54;11.60;87.90
40085;DHT22;25786;51.504;7.344;2022-09-17T00:06:20;11.50;88.00
40085;DHT22;25786;51.504;7.344;2022-09-17T00:08:46;11.50;88.30
40085;DHT22;25786;51.504;7.344;2022-09-17T00:11:13;11.50;88.20
40085;DHT22;25786;51.504;7.344;2022-09-17T00:13:39;11.60;88.60
40085;DHT22;25786;51.504;7.344;2022-09-17T00:16:05;11.60;88.10
40085;DHT22;25786;51.504;7.344;2022-09-17T00:18:30;11.60;88.20
40085;DHT22;25786;51.504;7.344;2022-09-17T00:20:56;11.50;88.10
40085;DHT22;25786;51.504;7.344;2022-09-17T00:23:21;11.50;88.50
40085;DHT22;25786;51.504;7.344;2022-09-17T00:25:47;11.50;88.50
40085;DHT22;25786;51.504;7.344;2022-09-17T00:28:13;11.60;88.60
40085;DHT22;25786;51.504;7.344;2022-09-17T00:30:39;11.60;88.30
40085;DHT22;25786;51.504;7.344;2022-09-17T00:33:05;11.60;88.30
40085;DHT22;25786;51.504;7.344;2022-09-17T00:35:30;11.60;88.20
40085;DHT22;25786;51.504;7.344;2022-09-17T00:37:56;11.60;88.50
40085;DHT22;25786;51.504;7.344;2022-09-17T00:40:21;11.50;88.30
40085;DHT22;25786;51.504;7.344;2022-09-17T00:42:47;11.50;88.00
40085;DHT22;25786;51.504;7.344;2022-09-17T00:45:12;11.40;88.30
40085;DHT22;25786;51.504;7.344;2022-09-17T00:52:37;11.30;88.60
40085;DHT22;25786;51.504;7.344;2022-09-17T00:55:26;11.20;88.50
40085;DHT22;25786;51.504;7.344;2022-09-17T00:57:50;11.20;88.60
40085;DHT22;25786;51.504;7.344;2022-09-17T01:00:16;11.20;88.20
40085;DHT22;25786;51.504;7.344;2022-09-17T01:02:42;11.20;88.10
40085;DHT22;25786;51.504;7.344;2022-09-17T01:05:08;11.20;88.10
40085;DHT22;25786;51.504;7.344;2022-09-17T01:10:17;11.30;88.30
40085;DHT22;25786;51.504;7.344;2022-09-17T01:12:51;11.20;88.30
40085;DHT22;25786;51.504;7.344;2022-09-17T01:15:34;11.20;88.00
40085;DHT22;25786;51.504;7.344;2022-09-17T01:25:47;11.00;88.50
40085;DHT22;25786;51.504;7.344;2022-09-17T01:31:07;10.90;89.10
40085;DHT22;25786;51.504;7.344;2022-09-17T01:38:51;10.80;88.60
40085;DHT22;25786;51.504;7.344;2022-09-17T01:41:40;10.90;88.60
40085;DHT22;25786;51.504;7.344;2022-09-17T01:44:13;10.90;88.90
40085;DHT22;25786;51.504;7.344;2022-09-17T01:46:48;10.80;89.20
40085;DHT22;25786;51.504;7.344;2022-09-17T01:49:15;10.80;89.10
40085;DHT22;25786;51.504;7.344;2022-09-17T01:51:43;10.80;89.10
40085;DHT22;25786;51.504;7.344;2022-09-17T01:54:22;10.80;89.50
40085;DHT22;25786;51.504;7.344;2022-09-17T01:56:55;10.80;89.30
40085;DHT22;25786;51.504;7.344;2022-09-17T02:00:09;10.80;89.20
40085;DHT22;25786;51.504;7.344;2022-09-17T02:05:01;10.90;89.10
40085;DHT22;25786;51.504;7.344;2022-09-17T02:07:27;10.90;89.20
40085;DHT22;25786;51.504;7.344;2022-09-17T02:10:00;10.90;89.00
40085;DHT22;25786;51.504;7.344;2022-09-17T02:12:30;10.90;89.30
40085;DHT22;25786;51.504;7.344;2022-09-17T02:14:58;10.80;89.40
40085;DHT22;25786;51.504;7.344;2022-09-17T02:17:36;10.80;89.40
40085;DHT22;25786;51.504;7.344;2022-09-17T02:20:03;10.90;89.20
40085;DHT22;25786;51.504;7.344;2022-09-17T02:22:41;10.90;89.10
40085;DHT22;25786;51.504;7.344;2022-09-17T02:25:14;10.90;89.30
40085;DHT22;25786;51.504;7.344;2022-09-17T02:28:00;10.90;89.30
40085;DHT22;25786;51.504;7.344;2022-09-17T02:30:26;11.00;89.50
40085;DHT22;25786;51.504;7.344;2022-09-17T02:32:52;11.00;89.10
40085;DHT22;25786;51.504;7.344;2022-09-17T02:35:18;11.00;89.00
40085;DHT22;25786;51.504;7.344;2022-09-17T02:37:43;11.00;88.90
40085;DHT22;25786;51.504;7.344;2022-09-17T02:40:09;11.00;89.00
40085;DHT22;25786;51.504;7.344;2022-09-17T02:52:48;10.90;89.20
40085;DHT22;25786;51.504;7.344;2022-09-17T02:55:17;10.90;89.30
40085;DHT22;25786;51.504;7.344;2022-09-17T02:57:45;11.00;89.20
40085;DHT22;25786;51.504;7.344;2022-09-17T03:00:12;11.10;89.00
40085;DHT22;25786;51.504;7.344;2022-09-17T03:02:39;11.00;88.60
40085;DHT22;25786;51.504;7.344;2022-09-17T03:05:07;11.10;88.40
40085;DHT22;25786;51.504;7.344;2022-09-17T03:07:33;11.00;88.70
40085;DHT22;25786;51.504;7.344;2022-09-17T03:09:59;11.10;88.50
40085;DHT22;25786;51.504;7.344;2022-09-17T03:12:25;11.10;88.60
40085;DHT22;25786;51.504;7.344;2022-09-17T03:14:51;11.20;88.10
40085;DHT22;25786;51.504;7.344;2022-09-17T03:17:16;11.10;88.30
40085;DHT22;25786;51.504;7.344;2022-09-17T03:19:41;11.10;88.40
40085;DHT22;25786;51.504;7.344;2022-09-17T03:22:07;11.10;88.50
40085;DHT22;25786;51.504;7.344;2022-09-17T03:24:32;11.10;88.50
40085;DHT22;25786;51.504;7.344;2022-09-17T03:26:58;11.10;88.30
40085;DHT22;25786;51.504;7.344;2022-09-17T03:29:23;11.10;87.90
40085;DHT22;25786;51.504;7.344;2022-09-17T03:31:49;11.10;88.30
40085;DHT22;25786;51.504;7.344;2022-09-17T03:34:14;11.00;87.90
40085;DHT22;25786;51.504;7.344;2022-09-17T03:36:39;11.10;87.80
40085;DHT22;25786;51.504;7.344;2022-09-17T03:39:05;11.00;87.90
40085;DHT22;25786;51.504;7.344;2022-09-17T03:41:30;11.00;87.80
40085;DHT22;25786;51.504;7.344;2022-09-17T03:43:56;11.10;88.00
40085;DHT22;25786;51.504;7.344;2022-09-17T03:46:21;11.10;87.60
40085;DHT22;25786;51.504;7.344;2022-09-17T03:48:47;11.10;87.30
40085;DHT22;25786;51.504;7.344;2022-09-17T03:51:12;11.10;87.00
40085;DHT22;25786;51.504;7.344;2022-09-17T03:53:38;11.00;87.40
40085;DHT22;25786;51.504;7.344;2022-09-17T03:56:04;11.00;87.60
40085;DHT22;25786;51.504;7.344;2022-09-17T03:58:30;10.90;87.90
40085;DHT22;25786;51.504;7.344;2022-09-17T04:00:56;11.00;87.60
40085;DHT22;25786;51.504;7.344;2022-09-17T04:03:25;10.90;87.80
40085;DHT22;25786;51.504;7.344;2022-09-17T04:05:51;10.80;88.10
40085;DHT22;25786;51.504;7.344;2022-09-17T04:08:16;11.00;87.60
40085;DHT22;25786;51.504;7.344;2022-09-17T04:10:43;10.80;87.70
40085;DHT22;25786;51.504;7.344;2022-09-17T04:13:08;10.80;87.70
40085;DHT22;25786;51.504;7.344;2022-09-17T04:15:34;10.80;87.60
40085;DHT22;25786;51.504;7.344;2022-09-17T04:17:59;10.70;87.40
40085;DHT22;25786;51.504;7.344;2022-09-17T04:20:25;10.80;87.50
40085;DHT22;25786;51.504;7.344;2022-09-17T04:22:51;10.70;87.70
40085;DHT22;25786;51.504;7.344;2022-09-17T04:25:17;10.80;87.90
40085;DHT22;25786;51.504;7.344;2022-09-17T04:27:43;10.60;88.10
40085;DHT22;25786;51.504;7.344;2022-09-17T04:30:08;10.70;87.90
40085;DHT22;25786;51.504;7.344;2022-09-17T04:32:34;10.70;87.50
40085;DHT22;25786;51.504;7.344;2022-09-17T04:34:59;10.70;87.70
40085;DHT22;25786;51.504;7.344;2022-09-17T04:37:24;10.70;87.50
40085;DHT22;25786;51.504;7.344;2022-09-17T04:39:50;10.70;87.30
40085;DHT22;25786;51.504;7.344;2022-09-17T04:42:16;10.80;87.20
40085;DHT22;25786;51.504;7.344;2022-09-17T04:44:41;10.70;87.00
40085;DHT22;25786;51.504;7.344;2022-09-17T04:47:07;10.70;87.40
40085;DHT22;25786;51.504;7.344;2022-09-17T04:49:32;10.70;87.30
40085;DHT22;25786;51.504;7.344;2022-09-17T04:51:58;10.80;87.10
40085;DHT22;25786;51.504;7.344;2022-09-17T04:54:23;10.70;87.10
40085;DHT22;25786;51.504;7.344;2022-09-17T04:56:49;10.70;87.10
40085;DHT22;25786;51.504;7.344;2022-09-17T04:59:14;10.70;87.30
40085;DHT22;25786;51.504;7.344;2022-09-17T05:01:40;10.60;87.30
40085;DHT22;25786;51.504;7.344;2022-09-17T05:04:07;10.60;87.60
40085;DHT22;25786;51.504;7.344;2022-09-17T05:06:32;10.60;87.60
40085;DHT22;25786;51.504;7.344;2022-09-17T05:08:58;10.70;87.90
40085;DHT22;25786;51.504;7.344;2022-09-17T05:11:24;10.80;87.70
40085;DHT22;25786;51.504;7.344;2022-09-17T05:13:49;10.80;87.40
40085;DHT22;25786;51.504;7.344;2022-09-17T05:16:15;10.90;87.20
40085;DHT22;25786;51.504;7.344;2022-09-17T05:18:40;10.90;87.30
40085;DHT22;25786;51.504;7.344;2022-09-17T05:21:06;10.90;87.00
40085;DHT22;25786;51.504;7.344;2022-09-17T05:23:31;10.90;86.80
40085;DHT22;25786;51.504;7.344;2022-09-17T05:25:57;10.90;87.00
40085;DHT22;25786;51.504;7.344;2022-09-17T05:28:24;10.90;87.00
40085;DHT22;25786;51.504;7.344;2022-09-17T05:30:49;10.90;87.10
40085;DHT22;25786;51.504;7.344;2022-09-17T05:33:15;10.90;87.20
40085;DHT22;25786;51.504;7.344;2022-09-17T05:35:40;11.00;87.20
40085;DHT22;25786;51.504;7.344;2022-09-17T05:38:08;10.90;87.00
40085;DHT22;25786;51.504;7.344;2022-09-17T05:40:33;11.00;87.00
40085;DHT22;25786;51.504;7.344;2022-09-17T05:43:02;10.90;86.70
40085;DHT22;25786;51.504;7.344;2022-09-17T05:45:28;11.00;86.40
40085;DHT22;25786;51.504;7.344;2022-09-17T05:47:55;10.90;86.40
40085;DHT22;25786;51.504;7.344;2022-09-17T05:50:20;10.90;86.30
40085;DHT22;25786;51.504;7.344;2022-09-17T05:52:46;11.00;86.40
40085;DHT22;25786;51.504;7.344;2022-09-17T05:55:11;11.10;85.80
40085;DHT22;25786;51.504;7.344;2022-09-17T05:57:37;11.20;85.90
40085;DHT22;25786;51.504;7.344;2022-09-17T06:00:02;11.30;85.70
40085;DHT22;25786;51.504;7.344;2022-09-17T06:02:28;11.40;85.40
40085;DHT22;25786;51.504;7.344;2022-09-17T06:04:55;11.40;85.50
40085;DHT22;25786;51.504;7.344;2022-09-17T06:07:25;11.40;85.30
40085;DHT22;25786;51.504;7.344;2022-09-17T06:09:50;11.50;84.90
40085;DHT22;25786;51.504;7.344;2022-09-17T06:12:16;11.50;84.60
40085;DHT22;25786;51.504;7.344;2022-09-17T06:14:41;11.40;84.50
40085;DHT22;25786;51.504;7.344;2022-09-17T06:17:06;11.50;84.60
40085;DHT22;25786;51.504;7.344;2022-09-17T06:19:47;11.60;84.50
40085;DHT22;25786;51.504;7.344;2022-09-17T06:22:23;11.60;84.10
40085;DHT22;25786;51.504;7.344;2022-09-17T06:24:49;11.60;83.70
40085;DHT22;25786;51.504;7.344;2022-09-17T06:27:14;11.60;83.80
40085;DHT22;25786;51.504;7.344;2022-09-17T06:29:40;11.60;84.30
40085;DHT22;25786;51.504;7.344;2022-09-17T06:32:06;11.60;83.70
40085;DHT22;25786;51.504;7.344;2022-09-17T06:34:35;11.60;83.00
40085;DHT22;25786;51.504;7.344;2022-09-17T06:37:00;11.60;83.60
40085;DHT22;25786;51.504;7.344;2022-09-17T06:39:26;11.70;82.60
40085;DHT22;25786;51.504;7.344;2022-09-17T06:41:51;11.70;82.50
40085;DHT22;25786;51.504;7.344;2022-09-17T06:44:16;11.60;83.10
40085;DHT22;25786;51.504;7.344;2022-09-17T06:46:42;11.70;82.60
40085;DHT22;25786;51.504;7.344;2022-09-17T06:49:08;11.70;82.70
40085;DHT22;25786;51.504;7.344;2022-09-17T06:51:34;11.70;82.70
40085;DHT22;25786;51.504;7.344;2022-09-17T06:53:59;11.60;83.20
40085;DHT22;25786;51.504;7.344;2022-09-17T06:56:25;11.60;82.60
40085;DHT22;25786;51.504;7.344;2022-09-17T07:01:53;11.60;82.40
40085;DHT22;25786;51.504;7.344;2022-09-17T07:04:28;11.60;82.10
40085;DHT22;25786;51.504;7.344;2022-09-17T07:07:00;11.70;82.00
40085;DHT22;25786;51.504;7.344;2022-09-17T07:09:32;11.80;81.30
40085;DHT22;25786;51.504;7.344;2022-09-17T07:12:07;11.70;81.70
40085;DHT22;25786;51.504;7.344;2022-09-17T07:14:36;11.80;81.70
40085;DHT22;25786;51.504;7.344;2022-09-17T07:17:21;11.80;81.50
40085;DHT22;25786;51.504;7.344;2022-09-17T07:20:07;11.90;81.40
40085;DHT22;25786;51.504;7.344;2022-09-17T07:22:41;11.80;81.30
40085;DHT22;25786;51.504;7.344;2022-09-17T07:25:35;11.80;81.50
40085;DHT22;25786;51.504;7.344;2022-09-17T07:28:02;11.80;81.00
40085;DHT22;25786;51.504;7.344;2022-09-17T07:30:28;11.80;80.90
40085;DHT22;25786;51.504;7.344;2022-09-17T07:32:54;11.60;81.10
40085;DHT22;25786;51.504;7.344;2022-09-17T07:35:19;11.60;82.00
40085;DHT22;25786;51.504;7.344;2022-09-17T07:37:44;11.70;81.80
40085;DHT22;25786;51.504;7.344;2022-09-17T07:40:11;11.70;81.90
40085;DHT22;25786;51.504;7.344;2022-09-17T07:42:36;11.90;81.20
40085;DHT22;25786;51.504;7.344;2022-09-17T07:45:14;11.90;81.00
40085;DHT22;25786;51.504;7.344;2022-09-17T07:47:42;11.80;81.60
40085;DHT22;25786;51.504;7.344;2022-09-17T07:56:14;11.60;82.30
40085;DHT22;25786;51.504;7.344;2022-09-17T08:01:45;11.80;81.90
40085;DHT22;25786;51.504;7.344;2022-09-17T08:07:27;12.10;81.30
40085;DHT22;25786;51.504;7.344;2022-09-17T08:09:53;12.30;80.50
40085;DHT22;25786;51.504;7.344;2022-09-17T08:12:18;12.30;80.10
40085;DHT22;25786;51.504;7.344;2022-09-17T08:14:44;12.30;79.60
40085;DHT22;25786;51.504;7.344;2022-09-17T08:17:09;12.40;79.20
40085;DHT22;25786;51.504;7.344;2022-09-17T08:19:35;12.40;79.40
40085;DHT22;25786;51.504;7.344;2022-09-17T08:22:02;12.40;79.10
40085;DHT22;25786;51.504;7.344;2022-09-17T08:24:30;12.40;79.10
40085;DHT22;25786;51.504;7.344;2022-09-17T08:26:56;12.40;78.40
40085;DHT22;25786;51.504;7.344;2022-09-17T08:29:22;12.40;77.90
40085;DHT22;25786;51.504;7.344;2022-09-17T08:31:48;12.50;78.20
40085;DHT22;25786;51.504;7.344;2022-09-17T08:34:13;12.60;76.70
40085;DHT22;25786;51.504;7.344;2022-09-17T08:36:39;12.80;75.50
40085;DHT22;25786;51.504;7.344;2022-09-17T08:39:04;12.80;75.50
40085;DHT22;25786;51.504;7.344;2022-09-17T08:41:50;12.90;73.70
40085;DHT22;25786;51.504;7.344;2022-09-17T08:44:24;13.00;73.80
40085;DHT22;25786;51.504;7.344;2022-09-17T08:54:29;13.00;73.20
40085;DHT22;25786;51.504;7.344;2022-09-17T08:57:06;13.00;72.00
40085;DHT22;25786;51.504;7.344;2022-09-17T08:59:42;13.10;72.80
40085;DHT22;25786;51.504;7.344;2022-09-17T09:02:18;13.20;73.30
40085;DHT22;25786;51.504;7.344;2022-09-17T09:07:17;13.60;72.40
40085;DHT22;25786;51.504;7.344;2022-09-17T09:09:54;13.80;70.60
40085;DHT22;25786;51.504;7.344;2022-09-17T09:12:26;13.80;69.50
40085;DHT22;25786;51.504;7.344;2022-09-17T09:15:01;13.80;70.80
40085;DHT22;25786;51.504;7.344;2022-09-17T09:17:30;13.70;70.50
40085;DHT22;25786;51.504;7.344;2022-09-17T09:19:58;13.70;70.20
40085;DHT22;25786;51.504;7.344;2022-09-17T09:25:03;13.80;69.30
40085;DHT22;25786;51.504;7.344;2022-09-17T09:27:54;13.80;68.40
40085;DHT22;25786;51.504;7.344;2022-09-17T09:30:15;13.80;68.90
40085;DHT22;25786;51.504;7.344;2022-09-17T09:32:57;13.80;69.00
40085;DHT22;25786;51.504;7.344;2022-09-17T09:35:31;13.90;68.40
40085;DHT22;25786;51.504;7.344;2022-09-17T09:40:47;13.70;67.50
40085;DHT22;25786;51.504;7.344;2022-09-17T09:43:16;13.90;66.90
40085;DHT22;25786;51.504;7.344;2022-09-17T09:56:54;14.30;64.60
40085;DHT22;25786;51.504;7.344;2022-09-17T09:59:21;14.40;64.70
40085;DHT22;25786;51.504;7.344;2022-09-17T10:01:46;14.60;63.90
40085;DHT22;25786;51.504;7.344;2022-09-17T10:04:16;14.60;63.80
40085;DHT22;25786;51.504;7.344;2022-09-17T10:06:43;14.60;64.40
40085;DHT22;25786;51.504;7.344;2022-09-17T10:09:10;14.50;62.90
40085;DHT22;25786;51.504;7.344;2022-09-17T10:11:36;14.60;62.30
40085;DHT22;25786;51.504;7.344;2022-09-17T10:14:22;14.60;61.50
40085;DHT22;25786;51.504;7.344;2022-09-17T10:17:09;14.50;61.80
40085;DHT22;25786;51.504;7.344;2022-09-17T10:19:37;14.60;63.20
40085;DHT22;25786;51.504;7.344;2022-09-17T10:24:43;14.80;60.50
40085;DHT22;25786;51.504;7.344;2022-09-17T10:27:11;14.60;60.50
40085;DHT22;25786;51.504;7.344;2022-09-17T10:29:41;14.60;61.00
40085;DHT22;25786;51.504;7.344;2022-09-17T10:32:11;14.60;61.20
40085;DHT22;25786;51.504;7.344;2022-09-17T10:34:38;14.60;60.60
40085;DHT22;25786;51.504;7.344;2022-09-17T10:37:09;14.50;61.60
40085;DHT22;25786;51.504;7.344;2022-09-17T10:39:50;14.60;60.20
40085;DHT22;25786;51.504;7.344;2022-09-17T10:42:17;14.70;61.70
40085;DHT22;25786;51.504;7.344;2022-09-17T10:44:53;14.90;61.00
40085;DHT22;25786;51.504;7.344;2022-09-17T10:47:29;15.10;59.50
40085;DHT22;25786;51.504;7.344;2022-09-17T10:49:58;15.40;59.50
40085;DHT22;25786;51.504;7.344;2022-09-17T10:57:20;15.30;60.10
40085;DHT22;25786;51.504;7.344;2022-09-17T10:59:52;15.20;61.80
40085;DHT22;25786;51.504;7.344;2022-09-17T11:02:30;14.90;62.10
40085;DHT22;25786;51.504;7.344;2022-09-17T11:10:35;14.30;60.60
40085;DHT22;25786;51.504;7.344;2022-09-17T11:15:52;14.30;61.30
40085;DHT22;25786;51.504;7.344;2022-09-17T11:23:38;14.40;64.10
40085;DHT22;25786;51.504;7.344;2022-09-17T11:28:45;14.40;64.20
40085;DHT22;25786;51.504;7.344;2022-09-17T11:31:25;14.30;66.00
40085;DHT22;25786;51.504;7.344;2022-09-17T11:36:23;14.00;64.40
40085;DHT22;25786;51.504;7.344;2022-09-17T11:38:50;13.70;65.50
40085;DHT22;25786;51.504;7.344;2022-09-17T11:41:19;13.60;66.70
40085;DHT22;25786;51.504;7.344;2022-09-17T11:43:47;13.60;68.20
40085;DHT22;25786;51.504;7.344;2022-09-17T11:46:20;13.70;66.40
40085;DHT22;25786;51.504;7.344;2022-09-17T11:48:54;13.70;66.60
40085;DHT22;25786;51.504;7.344;2022-09-17T11:53:59;13.90;65.80
40085;DHT22;25786;51.504;7.344;2022-09-17T11:58:56;14.00;65.90
40085;DHT22;25786;51.504;7.344;2022-09-17T12:03:56;14.00;64.30
40085;DHT22;25786;51.504;7.344;2022-09-17T12:06:29;14.10;66.80
40085;DHT22;25786;51.504;7.344;2022-09-17T12:08:59;14.50;65.90
40085;DHT22;25786;51.504;7.344;2022-09-17T12:13:59;15.10;62.60
40085;DHT22;25786;51.504;7.344;2022-09-17T12:19:10;14.90;61.60
40085;DHT22;25786;51.504;7.344;2022-09-17T12:21:38;14.70;62.70
40085;DHT22;25786;51.504;7.344;2022-09-17T12:24:20;14.50;68.50
40085;DHT22;25786;51.504;7.344;2022-09-17T12:26:52;14.30;69.50
40085;DHT22;25786;51.504;7.344;2022-09-17T12:31:52;14.10;71.00
40085;DHT22;25786;51.504;7.344;2022-09-17T12:34:26;13.80;74.30
40085;DHT22;25786;51.504;7.344;2022-09-17T12:37:09;13.60;75.60
40085;DHT22;25786;51.504;7.344;2022-09-17T12:39:50;13.50;78.00
40085;DHT22;25786;51.504;7.344;2022-09-17T12:42:23;13.30;79.40
40085;DHT22;25786;51.504;7.344;2022-09-17T12:45:39;13.20;79.50
40085;DHT22;25786;51.504;7.344;2022-09-17T12:53:38;13.10;79.20
40085;DHT22;25786;51.504;7.344;2022-09-17T12:55:55;13.10;77.30
40085;DHT22;25786;51.504;7.344;2022-09-17T12:58:33;13.10;77.30
40085;DHT22;25786;51.504;7.344;2022-09-17T13:01:02;13.10;77.00
40085;DHT22;25786;51.504;7.344;2022-09-17T13:03:31;13.10;79.50
40085;DHT22;25786;51.504;7.344;2022-09-17T13:08:59;13.70;77.30
40085;DHT22;25786;51.504;7.344;2022-09-17T13:14:09;14.20;74.40
40085;DHT22;25786;51.504;7.344;2022-09-17T13:19:11;13.90;77.50
40085;DHT22;25786;51.504;7.344;2022-09-17T13:21:46;13.40;78.90
40085;DHT22;25786;51.504;7.344;2022-09-17T13:24:18;13.10;78.10
40085;DHT22;25786;51.504;7.344;2022-09-17T13:26:45;12.90;79.90
40085;DHT22;25786;51.504;7.344;2022-09-17T13:29:11;13.00;80.60
40085;DHT22;25786;51.504;7.344;2022-09-17T13:42:03;13.20;81.20
40085;DHT22;25786;51.504;7.344;2022-09-17T13:44:32;13.30;81.60
40085;DHT22;25786;51.504;7.344;2022-09-17T13:47:20;13.50;80.00
40085;DHT22;25786;51.504;7.344;2022-09-17T13:49:51;13.60;78.20
40085;DHT22;25786;51.504;7.344;2022-09-17T13:52:27;13.50;76.40
40085;DHT22;25786;51.504;7.344;2022-09-17T13:54:54;13.60;76.10
40085;DHT22;25786;51.504;7.344;2022-09-17T13:57:21;13.60;76.50
40085;DHT22;25786;51.504;7.344;2022-09-17T13:59:54;13.70;76.80
40085;DHT22;25786;51.504;7.344;2022-09-17T14:04:49;14.00;75.50
40085;DHT22;25786;51.504;7.344;2022-09-17T14:15:08;13.50;76.10
40085;DHT22;25786;51.504;7.344;2022-09-17T14:17:50;13.70;75.70
40085;DHT22;25786;51.504;7.344;2022-09-17T14:20:17;13.60;75.00
40085;DHT22;25786;51.504;7.344;2022-09-17T14:22:43;13.50;76.50
40085;DHT22;25786;51.504;7.344;2022-09-17T14:25:14;13.50;76.30
40085;DHT22;25786;51.504;7.344;2022-09-17T14:30:17;13.40;78.90
40085;DHT22;25786;51.504;7.344;2022-09-17T14:35:22;13.20;81.80
40085;DHT22;25786;51.504;7.344;2022-09-17T14:37:52;13.10;81.40
40085;DHT22;25786;51.504;7.344;2022-09-17T14:40:19;13.10;80.90
40085;DHT22;25786;51.504;7.344;2022-09-17T14:42:45;13.10;79.40
40085;DHT22;25786;51.504;7.344;2022-09-17T14:45:16;13.00;79.60
40085;DHT22;25786;51.504;7.344;2022-09-17T14:47:43;12.90;81.40
40085;DHT22;25786;51.504;7.344;2022-09-17T14:50:30;13.00;81.60
40085;DHT22;25786;51.504;7.344;2022-09-17T14:52:55;13.10;80.70
40085;DHT22;25786;51.504;7.344;2022-09-17T14:55:21;13.40;78.70
40085;DHT22;25786;51.504;7.344;2022-09-17T14:57:49;13.50;78.00
40085;DHT22;25786;51.504;7.344;2022-09-17T15:00:34;13.50;77.20
40085;DHT22;25786;51.504;7.344;2022-09-17T15:03:02;13.50;77.00
40085;DHT22;25786;51.504;7.344;2022-09-17T15:10:33;13.30;76.60
40085;DHT22;25786;51.504;7.344;2022-09-17T15:13:02;13.30;76.80
40085;DHT22;25786;51.504;7.344;2022-09-17T15:15:28;13.30;77.40
40085;DHT22;25786;51.504;7.344;2022-09-17T15:17:53;13.30;78.60
40085;DHT22;25786;51.504;7.344;2022-09-17T15:20:20;13.40;77.00
40085;DHT22;25786;51.504;7.344;2022-09-17T15:22:48;13.40;77.20
40085;DHT22;25786;51.504;7.344;2022-09-17T15:25:17;13.60;75.00
40085;DHT22;25786;51.504;7.344;2022-09-17T15:27:44;13.60;77.10
40085;DHT22;25786;51.504;7.344;2022-09-17T15:30:12;13.60;75.80
40085;DHT22;25786;51.504;7.344;2022-09-17T15:32:39;13.70;76.40
40085;DHT22;25786;51.504;7.344;2022-09-17T15:35:14;13.90;74.30
40085;DHT22;25786;51.504;7.344;2022-09-17T15:37:44;13.80;72.30
40085;DHT22;25786;51.504;7.344;2022-09-17T15:40:24;13.80;72.80
40085;DHT22;25786;51.504;7.344;2022-09-17T15:42:50;13.70;73.60
40085;DHT22;25786;51.504;7.344;2022-09-17T15:45:26;13.70;70.10
40085;DHT22;25786;51.504;7.344;2022-09-17T15:47:53;13.70;69.60
40085;DHT22;25786;51.504;7.344;2022-09-17T15:52:44;13.80;69.30
40085;DHT22;25786;51.504;7.344;2022-09-17T15:57:54;13.70;68.00
40085;DHT22;25786;51.504;7.344;2022-09-17T16:00:20;13.50;69.40
40085;DHT22;25786;51.504;7.344;2022-09-17T16:02:45;13.60;68.30
40085;DHT22;25786;51.504;7.344;2022-09-17T16:07:43;13.40;68.50
40085;DHT22;25786;51.504;7.344;2022-09-17T16:10:09;13.40;69.20
40085;DHT22;25786;51.504;7.344;2022-09-17T16:12:35;13.50;66.60
40085;DHT22;25786;51.504;7.344;2022-09-17T16:15:01;13.50;69.00
40085;DHT22;25786;51.504;7.344;2022-09-17T16:17:28;13.50;68.70
40085;DHT22;25786;51.504;7.344;2022-09-17T16:19:57;13.50;68.80
40085;DHT22;25786;51.504;7.344;2022-09-17T16:22:23;13.60;68.80
40085;DHT22;25786;51.504;7.344;2022-09-17T16:24:51;13.80;68.30
40085;DHT22;25786;51.504;7.344;2022-09-17T16:27:38;13.90;66.80
40085;DHT22;25786;51.504;7.344;2022-09-17T16:30:05;13.90;67.00
40085;DHT22;25786;51.504;7.344;2022-09-17T16:32:33;13.80;67.90
40085;DHT22;25786;51.504;7.344;2022-09-17T16:34:59;13.80;68.70
40085;DHT22;25786;51.504;7.344;2022-09-17T16:37:24;13.60;69.70
40085;DHT22;25786;51.504;7.344;2022-09-17T16:39:50;13.50;70.60
40085;DHT22;25786;51.504;7.344;2022-09-17T16:42:16;13.40;71.80
40085;DHT22;25786;51.504;7.344;2022-09-17T16:44:42;13.30;71.90
40085;DHT22;25786;51.504;7.344;2022-09-17T16:47:07;13.30;71.60
40085;DHT22;25786;51.504;7.344;2022-09-17T16:49:32;13.30;72.50
40085;DHT22;25786;51.504;7.344;2022-09-17T16:51:58;13.20;73.00
40085;DHT22;25786;51.504;7.344;2022-09-17T16:54:24;13.10;72.90
40085;DHT22;25786;51.504;7.344;2022-09-17T16:56:49;13.00;74.00
40085;DHT22;25786;51.504;7.344;2022-09-17T16:59:15;12.90;74.00
40085;DHT22;25786;51.504;7.344;2022-09-17T17:01:41;12.80;74.50
40085;DHT22;25786;51.504;7.344;2022-09-17T17:04:07;12.80;74.10
40085;DHT22;25786;51.504;7.344;2022-09-17T17:06:33;12.70;74.80
40085;DHT22;25786;51.504;7.344;2022-09-17T17:08:58;12.70;75.10
40085;DHT22;25786;51.504;7.344;2022-09-17T17:11:27;12.60;75.20
40085;DHT22;25786;51.504;7.344;2022-09-17T17:13:53;12.60;75.60
40085;DHT22;25786;51.504;7.344;2022-09-17T17:16:20;12.50;75.10
40085;DHT22;25786;51.504;7.344;2022-09-17T17:18:46;12.60;75.30
40085;DHT22;25786;51.504;7.344;2022-09-17T17:21:12;12.60;75.00
40085;DHT22;25786;51.504;7.344;2022-09-17T17:23:37;12.60;75.50
40085;DHT22;25786;51.504;7.344;2022-09-17T17:26:03;12.60;75.50
40085;DHT22;25786;51.504;7.344;2022-09-17T17:28:37;12.50;76.00
40085;DHT22;25786;51.504;7.344;2022-09-17T17:31:27;12.60;75.10
40085;DHT22;25786;51.504;7.344;2022-09-17T17:34:00;12.50;75.50
40085;DHT22;25786;51.504;7.344;2022-09-17T17:36:25;12.50;75.30
40085;DHT22;25786;51.504;7.344;2022-09-17T17:38:59;12.50;75.40
40085;DHT22;25786;51.504;7.344;2022-09-17T17:41:25;12.50;75.60
40085;DHT22;25786;51.504;7.344;2022-09-17T17:43:52;12.50;76.00
40085;DHT22;25786;51.504;7.344;2022-09-17T17:46:17;12.50;74.90
40085;DHT22;25786;51.504;7.344;2022-09-17T17:48:43;12.50;74.60
40085;DHT22;25786;51.504;7.344;2022-09-17T17:51:09;12.50;74.90
40085;DHT22;25786;51.504;7.344;2022-09-17T17:53:35;12.50;74.90
40085;DHT22;25786;51.504;7.344;2022-09-17T17:56:05;12.40;75.60
40085;DHT22;25786;51.504;7.344;2022-09-17T17:58:31;12.30;75.30
40085;DHT22;25786;51.504;7.344;2022-09-17T18:00:56;12.30;75.50
40085;DHT22;25786;51.504;7.344;2022-09-17T18:03:22;12.40;75.70
40085;DHT22;25786;51.504;7.344;2022-09-17T18:05:52;12.40;75.30
40085;DHT22;25786;51.504;7.344;2022-09-17T18:08:17;12.30;75.30
40085;DHT22;25786;51.504;7.344;2022-09-17T18:10:50;12.30;75.70
40085;DHT22;25786;51.504;7.344;2022-09-17T18:13:16;12.30;75.70
40085;DHT22;25786;51.504;7.344;2022-09-17T18:15:51;12.30;75.40
40085;DHT22;25786;51.504;7.344;2022-09-17T18:18:18;12.30;75.20
40085;DHT22;25786;51.504;7.344;2022-09-17T18:20:43;12.40;74.50
40085;DHT22;25786;51.504;7.344;2022-09-17T18:23:09;12.20;75.70
40085;DHT22;25786;51.504;7.344;2022-09-17T18:25:34;12.20;76.00
40085;DHT22;25786;51.504;7.344;2022-09-17T18:28:00;12.20;76.60
40085;DHT22;25786;51.504;7.344;2022-09-17T18:30:25;12.20;76.30
40085;DHT22;25786;51.504;7.344;2022-09-17T18:32:51;12.20;75.90